createdAt,value
2023-04-19T00:00:47.012Z,21.41
2023-04-19T00:02:51.551Z,21.42
2023-04-19T00:04:53.469Z,21.43
2023-04-19T00:06:55.040Z,21.45
2023-04-19T00:08:56.371Z,21.45
2023-04-19T00:10:57.668Z,21.46
2023-04-19T00:12:58.968Z,21.47
2023-04-19T00:15:00.284Z,21.48
2023-04-19T00:17:01.700Z,21.48
2023-04-19T00:19:03.020Z,21.47
2023-04-19T00:21:04.349Z,21.46
2023-04-19T00:23:05.653Z,21.46
2023-04-19T00:25:07.095Z,21.45
2023-04-19T00:27:08.459Z,21.45
2023-04-19T00:29:09.863Z,21.44
2023-04-19T00:31:11.304Z,21.43
2023-04-19T00:33:12.962Z,21.43
2023-04-19T00:35:14.921Z,21.44
2023-04-19T00:37:16.218Z,21.42
2023-04-19T00:39:17.562Z,21.42
2023-04-19T00:41:18.903Z,21.48
2023-04-19T00:43:20.243Z,21.47
2023-04-19T00:45:21.620Z,21.46
2023-04-19T00:47:23.032Z,21.46
2023-04-19T00:49:24.416Z,21.44
2023-04-19T00:51:27.282Z,21.45
2023-04-19T00:53:28.640Z,21.46
2023-04-19T00:55:29.939Z,21.46
2023-04-19T00:57:31.334Z,21.42
2023-04-19T00:59:32.630Z,21.38
2023-04-19T01:01:34.034Z,21.35
2023-04-19T01:03:35.646Z,21.35
2023-04-19T01:05:37.108Z,21.34
2023-04-19T01:07:38.444Z,21.39
2023-04-19T01:09:39.781Z,21.40
2023-04-19T01:11:43.165Z,21.42
2023-04-19T01:13:44.935Z,21.42
2023-04-19T01:15:46.301Z,21.45
2023-04-19T01:17:47.809Z,21.44
2023-04-19T01:19:49.160Z,21.45
2023-04-19T01:21:52.818Z,21.47
2023-04-19T01:23:54.205Z,21.49
2023-04-19T01:25:56.047Z,21.50
2023-04-19T01:27:57.378Z,21.50
2023-04-19T01:29:58.732Z,21.51
2023-04-19T01:32:00.084Z,21.49
2023-04-19T01:34:01.418Z,21.47
2023-04-19T01:36:02.810Z,21.47
2023-04-19T01:38:05.424Z,21.48
2023-04-19T01:40:07.084Z,21.47
2023-04-19T01:42:08.404Z,21.47
2023-04-19T01:44:09.704Z,21.48
2023-04-19T01:46:11.310Z,21.50
2023-04-19T01:48:12.636Z,21.51
2023-04-19T01:50:13.934Z,21.55
2023-04-19T01:52:15.339Z,21.60
2023-04-19T01:54:16.843Z,21.60
2023-04-19T01:56:18.314Z,21.60
2023-04-19T01:58:19.670Z,21.59
2023-04-19T02:00:20.964Z,21.59
2023-04-19T02:02:22.458Z,21.62
2023-04-19T02:04:23.882Z,21.61
2023-04-19T02:06:26.991Z,21.60
2023-04-19T02:08:28.396Z,21.59
2023-04-19T02:10:29.692Z,21.55
2023-04-19T02:12:31.259Z,21.57
2023-04-19T02:14:32.794Z,21.60
2023-04-19T02:16:36.053Z,21.58
2023-04-19T02:18:40.700Z,21.54
2023-04-19T02:20:42.009Z,21.54
2023-04-19T02:22:44.025Z,21.52
2023-04-19T02:24:45.688Z,21.54
2023-04-19T02:26:47.031Z,21.53
2023-04-19T02:28:48.355Z,21.55
2023-04-19T02:30:49.662Z,21.55
2023-04-19T02:32:51.110Z,21.54
2023-04-19T02:34:52.455Z,21.53
2023-04-19T02:36:53.769Z,21.54
2023-04-19T02:38:55.100Z,21.51
2023-04-19T02:40:56.477Z,21.58
2023-04-19T02:42:57.879Z,21.63
2023-04-19T02:44:59.195Z,21.52
2023-04-19T02:47:00.869Z,21.43
2023-04-19T02:49:02.262Z,21.34
2023-04-19T02:51:03.554Z,21.28
2023-04-19T02:53:04.859Z,21.28
2023-04-19T02:55:06.176Z,21.23
2023-04-19T02:57:07.509Z,21.28
2023-04-19T02:59:08.845Z,21.26
2023-04-19T03:01:10.190Z,21.24
2023-04-19T03:03:11.732Z,21.21
2023-04-19T03:05:13.286Z,21.21
2023-04-19T03:07:14.616Z,21.11
2023-04-19T03:09:16.084Z,21.10
2023-04-19T03:11:17.411Z,21.11
2023-04-19T03:13:18.728Z,21.13
2023-04-19T03:15:20.620Z,21.17
2023-04-19T03:17:21.928Z,21.22
2023-04-19T03:19:23.266Z,21.26
2023-04-19T03:21:27.529Z,21.29
2023-04-19T03:23:28.924Z,21.32
2023-04-19T03:25:30.231Z,21.34
2023-04-19T03:27:31.558Z,21.37
2023-04-19T03:29:32.897Z,21.39
2023-04-19T03:31:34.296Z,21.40
2023-04-19T03:33:35.675Z,21.40
2023-04-19T03:35:36.964Z,21.40
2023-04-19T03:37:38.321Z,21.39
2023-04-19T03:39:39.923Z,21.40
2023-04-19T03:41:41.322Z,21.38
2023-04-19T03:43:42.612Z,21.36
2023-04-19T03:45:43.907Z,21.35
2023-04-19T03:47:45.949Z,21.33
2023-04-19T03:49:47.632Z,21.29
2023-04-19T03:51:48.951Z,21.28
2023-04-19T03:53:50.277Z,21.25
2023-04-19T03:55:51.579Z,21.23
2023-04-19T03:57:52.887Z,21.19
2023-04-19T03:59:54.196Z,21.18
2023-04-19T04:01:56.039Z,21.17
2023-04-19T04:03:57.697Z,21.14
2023-04-19T04:05:59.184Z,21.10
2023-04-19T04:08:00.982Z,21.05
2023-04-19T04:10:02.308Z,21.01
2023-04-19T04:12:03.642Z,20.98
2023-04-19T04:14:04.949Z,20.93
2023-04-19T04:16:06.299Z,20.87
2023-04-19T04:18:09.128Z,20.83
2023-04-19T04:20:11.887Z,20.80
2023-04-19T04:22:13.193Z,20.79
2023-04-19T04:24:14.722Z,20.80
2023-04-19T04:26:16.214Z,20.82
2023-04-19T04:28:17.527Z,20.83
2023-04-19T04:30:18.836Z,20.85
2023-04-19T04:32:23.568Z,20.89
2023-04-19T04:34:25.853Z,20.93
2023-04-19T04:36:29.739Z,20.98
2023-04-19T04:38:31.323Z,21.06
2023-04-19T04:40:33.510Z,21.11
2023-04-19T04:42:35.699Z,21.18
2023-04-19T04:44:37.284Z,21.26
2023-04-19T04:46:38.623Z,21.32
2023-04-19T04:48:40.400Z,21.35
2023-04-19T04:50:41.780Z,21.39
2023-04-19T04:52:43.133Z,21.43
2023-04-19T04:54:44.434Z,21.45
2023-04-19T04:56:46.017Z,21.48
2023-04-19T04:58:47.330Z,21.49
2023-04-19T05:00:49.134Z,21.49
2023-04-19T05:02:50.575Z,21.47
2023-04-19T05:04:52.017Z,21.47
2023-04-19T05:06:53.385Z,21.42
2023-04-19T05:08:54.730Z,21.40
2023-04-19T05:10:56.063Z,21.37
2023-04-19T05:12:57.395Z,21.34
2023-04-19T05:14:58.799Z,21.32
2023-04-19T05:17:00.200Z,21.31
2023-04-19T05:19:02.205Z,21.26
2023-04-19T05:21:03.510Z,21.24
2023-04-19T05:23:04.863Z,21.22
2023-04-19T05:25:06.202Z,21.20
2023-04-19T05:27:07.497Z,21.19
2023-04-19T05:29:08.794Z,21.17
2023-04-19T05:31:10.239Z,21.14
2023-04-19T05:33:11.611Z,21.13
2023-04-19T05:35:13.195Z,21.13
2023-04-19T05:37:14.506Z,21.11
2023-04-19T05:39:15.851Z,21.09
2023-04-19T05:41:17.150Z,21.09
2023-04-19T05:43:18.522Z,21.09
2023-04-19T05:45:19.815Z,21.09
2023-04-19T05:47:21.398Z,21.09
2023-04-19T05:49:22.786Z,21.09
2023-04-19T05:51:24.096Z,21.09
2023-04-19T05:53:25.487Z,21.09
2023-04-19T05:55:26.830Z,21.09
2023-04-19T05:57:28.168Z,21.10
2023-04-19T05:59:29.576Z,21.11
2023-04-19T06:01:30.865Z,21.12
2023-04-19T06:03:33.511Z,21.12
2023-04-19T06:05:34.986Z,21.15
2023-04-19T06:07:40.590Z,21.18
2023-04-19T06:09:45.239Z,21.20
2023-04-19T06:11:50.643Z,21.25
2023-04-19T06:13:52.807Z,21.32
2023-04-19T06:15:54.184Z,21.33
2023-04-19T06:17:57.463Z,21.40
2023-04-19T06:20:00.958Z,21.44
2023-04-19T06:22:02.571Z,21.49
2023-04-19T06:24:03.924Z,21.50
2023-04-19T06:26:05.343Z,21.49
2023-04-19T06:28:06.784Z,21.50
2023-04-19T06:30:08.332Z,21.48
2023-04-19T06:32:09.634Z,21.47
2023-04-19T06:34:11.187Z,21.45
2023-04-19T06:36:12.653Z,21.43
2023-04-19T06:38:13.956Z,21.40
2023-04-19T06:40:15.273Z,21.37
2023-04-19T06:42:19.788Z,21.35
2023-04-19T06:44:21.128Z,21.32
2023-04-19T06:46:22.503Z,21.30
2023-04-19T06:48:23.808Z,21.29
2023-04-19T06:50:25.322Z,21.25
2023-04-19T06:52:26.615Z,21.24
2023-04-19T06:54:27.909Z,21.21
2023-04-19T06:56:29.351Z,21.21
2023-04-19T06:58:32.714Z,21.20
2023-04-19T07:00:34.691Z,21.19
2023-04-19T07:02:36.088Z,21.17
2023-04-19T07:04:37.782Z,21.18
2023-04-19T07:06:39.301Z,21.16
2023-04-19T07:08:49.731Z,21.16
2023-04-19T07:10:51.841Z,21.15
2023-04-19T07:12:53.141Z,21.13
2023-04-19T07:14:56.597Z,21.13
2023-04-19T07:16:57.944Z,21.13
2023-04-19T07:18:59.292Z,21.13
2023-04-19T07:21:00.685Z,21.12
2023-04-19T07:23:02.282Z,21.11
2023-04-19T07:25:03.763Z,21.13
2023-04-19T07:27:05.097Z,21.16
2023-04-19T07:29:06.392Z,21.20
2023-04-19T07:31:07.861Z,21.25
2023-04-19T07:33:09.288Z,21.29
2023-04-19T07:35:10.803Z,21.35
2023-04-19T07:37:12.558Z,21.43
2023-04-19T07:39:13.877Z,21.51
2023-04-19T07:41:15.211Z,21.58
2023-04-19T07:43:16.724Z,21.66
2023-04-19T07:45:18.803Z,21.68
2023-04-19T07:47:22.822Z,21.78
2023-04-19T07:49:24.123Z,21.86
2023-04-19T07:51:26.202Z,21.91
2023-04-19T07:53:27.625Z,21.96
2023-04-19T07:55:28.931Z,21.99
2023-04-19T07:57:30.353Z,22.00
2023-04-19T07:59:33.502Z,21.96
2023-04-19T08:01:35.009Z,21.94
2023-04-19T08:03:37.033Z,21.95
2023-04-19T08:05:38.571Z,21.94
2023-04-19T08:07:40.057Z,21.96
2023-04-19T08:09:41.573Z,21.85
2023-04-19T08:11:43.237Z,21.74
2023-04-19T08:13:55.679Z,21.65
2023-04-19T08:16:40.330Z,21.43
2023-04-19T08:18:27.181Z,21.46
2023-04-19T08:20:28.551Z,21.43
2023-04-19T08:22:29.878Z,21.39
2023-04-19T08:24:31.255Z,21.33
2023-04-19T08:26:32.608Z,21.27
2023-04-19T08:28:33.894Z,21.25
2023-04-19T08:30:35.245Z,21.21
2023-04-19T08:32:36.641Z,21.18
2023-04-19T08:34:37.984Z,21.15
2023-04-19T08:36:45.658Z,21.12
2023-04-19T08:39:04.096Z,21.10
2023-04-19T08:41:06.115Z,21.09
2023-04-19T08:43:07.591Z,21.07
2023-04-19T08:45:27.028Z,21.06
2023-04-19T08:47:33.540Z,21.05
2023-04-19T08:49:35.839Z,21.03
2023-04-19T08:51:37.140Z,21.03
2023-04-19T08:53:38.438Z,21.03
2023-04-19T08:55:41.000Z,21.04
2023-04-19T08:57:46.876Z,21.06
2023-04-19T08:59:55.778Z,21.07
2023-04-19T09:01:59.314Z,21.10
2023-04-19T09:04:10.293Z,21.13
2023-04-19T09:06:22.360Z,21.19
2023-04-19T09:08:24.284Z,21.24
2023-04-19T09:10:26.357Z,21.37
2023-04-19T09:12:27.948Z,21.43
2023-04-19T09:14:29.373Z,21.49
2023-04-19T09:16:30.707Z,21.61
2023-04-19T09:18:34.359Z,21.65
2023-04-19T09:20:37.498Z,21.69
2023-04-19T09:22:38.816Z,21.71
2023-04-19T09:26:44.352Z,21.78
2023-04-19T09:28:45.713Z,21.74
2023-04-19T09:31:00.012Z,21.72
2023-04-19T09:33:08.482Z,21.68
2023-04-19T09:35:09.848Z,21.65
2023-04-19T09:37:15.154Z,21.61
2023-04-19T09:39:29.223Z,21.55
2023-04-19T09:41:30.543Z,21.52
2023-04-19T09:43:58.172Z,21.47
2023-04-19T09:45:53.136Z,21.42
2023-04-19T09:47:54.462Z,21.37
2023-04-19T09:49:56.108Z,21.35
2023-04-19T09:51:57.824Z,21.40
2023-04-19T09:53:59.125Z,21.46
2023-04-19T09:56:02.671Z,21.50
2023-04-19T09:58:05.056Z,21.54
2023-04-19T10:00:09.430Z,21.52
2023-04-19T10:02:10.905Z,21.50
2023-04-19T10:04:24.095Z,21.48
2023-04-19T10:06:51.808Z,21.40
2023-04-19T10:08:56.177Z,21.34
2023-04-19T10:10:59.179Z,21.39
2023-04-19T10:13:15.906Z,21.33
2023-04-19T10:15:20.843Z,21.28
2023-04-19T10:17:22.517Z,21.24
2023-04-19T10:19:24.001Z,21.22
2023-04-19T10:21:25.393Z,21.29
2023-04-19T10:23:26.695Z,21.34
2023-04-19T10:25:27.985Z,21.35
2023-04-19T10:27:29.324Z,21.38
2023-04-19T10:29:30.727Z,21.40
2023-04-19T10:31:32.230Z,21.42
2023-04-19T10:33:33.544Z,21.41
2023-04-19T10:35:34.872Z,21.47
2023-04-19T10:37:36.212Z,21.48
2023-04-19T10:39:37.504Z,21.49
2023-04-19T10:41:38.807Z,21.45
2023-04-19T10:43:40.180Z,21.43
2023-04-19T10:45:41.503Z,21.50
2023-04-19T10:47:42.878Z,21.60
2023-04-19T10:49:44.215Z,21.65
2023-04-19T10:51:45.625Z,21.71
2023-04-19T10:53:46.994Z,21.76
2023-04-19T10:55:48.319Z,21.79
2023-04-19T10:57:49.665Z,21.79
2023-04-19T10:59:50.973Z,21.80
2023-04-19T11:01:52.671Z,21.85
2023-04-19T11:03:54.527Z,21.89
2023-04-19T11:05:56.211Z,21.90
2023-04-19T11:07:57.826Z,21.80
2023-04-19T11:09:59.214Z,21.73
2023-04-19T11:12:02.306Z,21.67
2023-04-19T11:14:04.199Z,21.61
2023-04-19T11:16:05.673Z,21.56
2023-04-19T11:18:12.892Z,21.50
2023-04-19T11:20:14.710Z,21.44
2023-04-19T11:22:16.171Z,21.37
2023-04-19T11:24:19.111Z,21.36
2023-04-19T11:26:21.103Z,21.41
2023-04-19T11:28:22.409Z,21.40
2023-04-19T11:30:23.708Z,21.37
2023-04-19T11:32:25.059Z,21.34
2023-04-19T11:34:26.365Z,21.34
2023-04-19T11:36:27.706Z,21.35
2023-04-19T11:38:28.999Z,21.36
2023-04-19T11:40:30.412Z,21.34
2023-04-19T11:42:31.746Z,21.33
2023-04-19T11:44:34.183Z,21.32
2023-04-19T11:46:35.604Z,21.28
2023-04-19T11:48:36.935Z,21.27
2023-04-19T11:50:38.383Z,21.28
2023-04-19T11:52:39.810Z,21.36
2023-04-19T11:54:42.240Z,21.35
2023-04-19T11:56:43.560Z,21.36
2023-04-19T11:58:45.390Z,21.36
2023-04-19T12:00:46.776Z,21.35
2023-04-19T12:02:48.301Z,21.36
2023-04-19T12:04:49.878Z,21.36
2023-04-19T12:06:51.528Z,21.38
2023-04-19T12:08:52.920Z,21.40
2023-04-19T12:10:54.267Z,21.39
2023-04-19T12:12:55.747Z,21.44
2023-04-19T12:14:57.059Z,21.46
2023-04-19T12:16:58.478Z,21.50
2023-04-19T12:19:02.723Z,21.53
2023-04-19T12:21:04.143Z,21.58
2023-04-19T12:23:06.859Z,21.59
2023-04-19T12:25:08.558Z,21.58
2023-04-19T12:27:10.920Z,21.60
2023-04-19T12:29:12.289Z,21.59
2023-04-19T12:31:13.595Z,21.56
2023-04-19T12:33:14.963Z,21.54
2023-04-19T12:35:16.303Z,21.54
2023-04-19T12:37:17.627Z,21.55
2023-04-19T12:39:18.912Z,21.53
2023-04-19T12:41:21.085Z,21.48
2023-04-19T12:43:22.467Z,21.44
2023-04-19T12:45:23.796Z,21.42
2023-04-19T12:47:25.154Z,21.39
2023-04-19T12:49:26.772Z,21.37
2023-04-19T12:51:28.264Z,21.33
2023-04-19T12:53:29.987Z,21.30
2023-04-19T12:55:31.739Z,21.26
2023-04-19T12:57:33.051Z,21.23
2023-04-19T12:59:34.355Z,21.20
2023-04-19T13:01:35.775Z,21.18
2023-04-19T13:03:37.502Z,21.18
2023-04-19T13:05:39.160Z,21.18
2023-04-19T13:07:40.590Z,21.17
2023-04-19T13:09:41.891Z,20.05
2023-04-19T13:11:43.243Z,21.06
2023-04-19T13:13:44.544Z,21.85
2023-04-19T13:15:46.042Z,22.59
2023-04-19T13:17:48.209Z,22.47
2023-04-19T13:19:49.610Z,23.00
2023-04-19T13:21:53.970Z,23.23
2023-04-19T13:23:57.965Z,23.05
2023-04-19T13:25:59.387Z,23.18
2023-04-19T13:28:01.132Z,23.42
2023-04-19T13:30:02.443Z,23.13
2023-04-19T13:32:07.272Z,22.71
2023-04-19T13:34:08.634Z,23.04
2023-04-19T13:36:09.935Z,23.30
2023-04-19T13:38:11.269Z,23.27
2023-04-19T13:40:19.343Z,22.72
2023-04-19T13:42:21.180Z,22.65
2023-04-19T13:44:22.518Z,22.91
2023-04-19T13:46:23.831Z,22.96
2023-04-19T13:48:28.707Z,22.91
2023-04-19T13:50:30.068Z,23.11
2023-04-19T13:52:31.414Z,22.97
2023-04-19T13:54:32.813Z,22.41
2023-04-19T13:56:34.159Z,22.13
2023-04-19T13:58:35.550Z,21.99
2023-04-19T14:00:37.378Z,21.87
2023-04-19T14:02:38.929Z,21.81
2023-04-19T14:04:40.535Z,21.80
2023-04-19T14:06:41.912Z,21.78
2023-04-19T14:08:43.374Z,21.78
2023-04-19T14:10:45.196Z,21.81
2023-04-19T14:12:46.469Z,21.79
2023-04-19T14:14:47.771Z,21.79
2023-04-19T14:16:49.166Z,21.80
2023-04-19T14:18:50.680Z,21.79
2023-04-19T14:20:52.148Z,21.77
2023-04-19T14:22:55.238Z,21.79
2023-04-19T14:24:56.600Z,21.78
2023-04-19T14:27:10.306Z,21.78
2023-04-19T14:29:12.609Z,21.82
2023-04-19T14:31:13.957Z,21.79
2023-04-19T14:33:15.327Z,21.80
2023-04-19T14:35:19.665Z,21.80
2023-04-19T14:37:21.097Z,21.83
2023-04-19T14:39:22.393Z,21.89
2023-04-19T14:41:23.804Z,21.87
2023-04-19T14:43:25.136Z,21.83
2023-04-19T14:45:27.639Z,21.79
2023-04-19T14:47:29.064Z,21.74
2023-04-19T14:49:33.222Z,21.70
2023-04-19T14:51:34.542Z,21.68
2023-04-19T14:53:36.013Z,21.67
2023-04-19T14:55:40.303Z,20.94
2023-04-19T14:57:41.605Z,21.66
2023-04-19T14:59:43.141Z,21.64
2023-04-19T15:01:44.538Z,21.64
2023-04-19T15:03:49.144Z,21.62
2023-04-19T15:05:50.772Z,21.60
2023-04-19T15:08:04.272Z,21.56
2023-04-19T15:10:05.972Z,21.54
2023-04-19T15:12:07.267Z,21.52
2023-04-19T15:14:08.604Z,21.52
2023-04-19T15:16:09.955Z,21.50
2023-04-19T15:18:14.610Z,21.48
2023-04-19T15:20:15.906Z,21.46
2023-04-19T15:22:17.264Z,21.45
2023-04-19T15:24:18.636Z,21.42
2023-04-19T15:26:19.930Z,21.41
2023-04-19T15:28:21.245Z,21.35
2023-04-19T15:30:22.561Z,21.96
2023-04-19T15:32:23.949Z,22.49
2023-04-19T15:34:25.435Z,22.35
2023-04-19T15:36:29.623Z,22.34
2023-04-19T15:38:30.940Z,22.39
2023-04-19T15:40:32.395Z,22.41
2023-04-19T15:42:33.738Z,22.43
2023-04-19T15:44:35.047Z,23.06
2023-04-19T15:46:36.385Z,22.83
2023-04-19T15:48:37.737Z,22.59
2023-04-19T15:50:39.037Z,23.01
2023-04-19T15:52:40.333Z,23.36
2023-04-19T15:54:41.641Z,23.03
2023-04-19T15:56:42.976Z,22.77
2023-04-19T15:58:44.305Z,22.67
2023-04-19T16:00:45.798Z,22.63
2023-04-19T16:02:48.126Z,22.59
2023-04-19T16:04:49.674Z,22.56
2023-04-19T16:06:57.446Z,22.59
2023-04-19T16:08:58.773Z,22.60
2023-04-19T16:11:00.219Z,22.60
2023-04-19T16:13:02.466Z,22.58
2023-04-19T16:15:04.783Z,22.60
2023-04-19T16:17:06.120Z,22.59
2023-04-19T16:19:07.416Z,22.59
2023-04-19T16:21:10.549Z,22.58
2023-04-19T16:23:12.079Z,22.56
2023-04-19T16:25:14.191Z,22.55
2023-04-19T16:27:15.524Z,22.49
2023-04-19T16:29:17.087Z,22.52
2023-04-19T16:31:18.619Z,22.50
2023-04-19T16:33:19.993Z,22.49
2023-04-19T16:35:21.433Z,22.50
2023-04-19T16:37:22.728Z,22.48
2023-04-19T16:39:30.057Z,22.48
2023-04-19T16:41:31.438Z,22.48
2023-04-19T16:43:32.727Z,22.48
2023-04-19T16:45:34.099Z,22.33
2023-04-19T16:47:35.533Z,22.00
2023-04-19T16:49:36.921Z,21.70
2023-04-19T16:51:38.287Z,22.04
2023-04-19T16:53:39.606Z,21.13
2023-04-19T16:55:40.939Z,22.40
2023-04-19T16:57:42.326Z,22.56
2023-04-19T16:59:43.655Z,22.42
2023-04-19T17:01:44.978Z,22.42
2023-04-19T17:03:47.490Z,22.45
2023-04-19T17:05:48.831Z,22.46
2023-04-19T17:09:51.544Z,22.61
2023-04-19T17:11:52.854Z,22.64
2023-04-19T17:13:56.089Z,22.67
2023-04-19T17:15:58.137Z,22.68
2023-04-19T17:17:59.637Z,22.67
2023-04-19T17:20:02.181Z,22.67
2023-04-19T17:22:05.724Z,22.64
2023-04-19T17:24:07.284Z,22.62
2023-04-19T17:26:08.579Z,22.61
2023-04-19T17:28:09.905Z,22.58
2023-04-19T17:30:14.014Z,22.57
2023-04-19T17:32:15.541Z,22.55
2023-04-19T17:34:16.965Z,22.58
2023-04-19T17:38:20.085Z,22.30
2023-04-19T17:40:21.424Z,22.39
2023-04-19T17:42:22.751Z,22.47
2023-04-19T17:44:24.071Z,22.68
2023-04-19T17:46:25.591Z,22.98
2023-04-19T17:48:29.867Z,22.80
2023-04-19T17:50:31.222Z,22.57
2023-04-19T17:52:32.548Z,22.49
2023-04-19T17:54:33.884Z,22.64
2023-04-19T17:56:35.218Z,22.60
2023-04-19T17:58:36.571Z,23.22
2023-04-19T18:00:37.885Z,22.87
2023-04-19T18:02:40.715Z,22.64
2023-04-19T18:04:44.643Z,22.54
2023-04-19T18:06:46.408Z,22.16
2023-04-19T18:08:48.936Z,22.21
2023-04-19T18:10:51.028Z,22.33
2023-04-19T18:12:52.385Z,22.41
2023-04-19T18:14:53.749Z,22.49
2023-04-19T18:17:03.782Z,22.55
2023-04-19T18:19:05.119Z,22.57
2023-04-19T18:21:06.460Z,22.59
2023-04-19T18:23:07.767Z,22.57
2023-04-19T18:25:11.973Z,22.58
2023-04-19T18:27:13.308Z,22.61
2023-04-19T18:29:19.261Z,22.67
2023-04-19T18:31:20.626Z,23.02
2023-04-19T18:33:21.977Z,22.98
2023-04-19T18:35:23.364Z,22.88
2023-04-19T18:37:24.690Z,22.65
2023-04-19T18:39:26.211Z,22.50
2023-04-19T18:41:30.186Z,22.66
2023-04-19T18:43:31.652Z,22.75
2023-04-19T18:45:33.435Z,22.86
2023-04-19T18:47:43.849Z,22.90
2023-04-19T18:50:04.598Z,22.84
2023-04-19T18:52:06.352Z,22.86
2023-04-19T18:54:07.663Z,22.94
2023-04-19T18:56:10.055Z,22.88
2023-04-19T18:58:12.125Z,22.80
2023-04-19T19:00:14.445Z,22.79
2023-04-19T19:02:18.836Z,22.70
2023-04-19T19:04:48.026Z,22.71
2023-04-19T19:06:47.740Z,22.66
2023-04-19T19:08:50.217Z,22.67
2023-04-19T19:12:55.899Z,22.89
2023-04-19T19:14:57.521Z,22.76
2023-04-19T19:16:59.113Z,22.69
2023-04-19T19:19:00.521Z,22.64
2023-04-19T19:21:05.013Z,22.53
2023-04-19T19:23:06.321Z,22.22
2023-04-19T19:25:07.695Z,21.96
2023-04-19T19:27:09.214Z,21.83
2023-04-19T19:29:16.295Z,21.75
2023-04-19T19:31:17.993Z,21.70
2023-04-19T19:33:19.794Z,21.66
2023-04-19T19:35:21.104Z,21.66
2023-04-19T19:37:22.416Z,21.65
2023-04-19T19:39:23.871Z,21.66
2023-04-19T19:41:51.543Z,21.92
2023-04-19T19:43:46.560Z,22.23
2023-04-19T19:45:50.536Z,22.36
2023-04-19T19:47:52.012Z,22.45
2023-04-19T19:52:16.845Z,23.04
2023-04-19T19:54:18.175Z,22.91
2023-04-19T19:56:22.888Z,22.91
2023-04-19T19:58:46.429Z,23.00
2023-04-19T20:00:50.293Z,23.04
2023-04-19T20:02:55.981Z,23.10
2023-04-19T20:04:58.009Z,23.15
2023-04-19T20:09:04.515Z,23.24
2023-04-19T20:11:06.129Z,23.34
2023-04-19T20:13:07.514Z,23.38
2023-04-19T20:15:08.848Z,23.36
2023-04-19T20:17:10.159Z,23.40
2023-04-19T20:19:11.618Z,23.36
2023-04-19T20:21:13.015Z,23.37
2023-04-19T20:23:14.379Z,23.37
2023-04-19T20:25:15.670Z,23.36
2023-04-19T20:27:17.028Z,23.33
2023-04-19T20:29:21.283Z,23.27
2023-04-19T20:31:23.993Z,23.29
2023-04-19T20:33:25.602Z,23.21
2023-04-19T20:35:27.213Z,23.27
2023-04-19T20:37:29.908Z,23.30
2023-04-19T20:39:31.217Z,23.28
2023-04-19T20:41:32.555Z,22.90
2023-04-19T20:43:33.885Z,22.42
2023-04-19T20:45:35.220Z,21.51
2023-04-19T20:47:38.402Z,20.14
2023-04-19T20:49:39.736Z,20.84
2023-04-19T20:51:41.049Z,21.24
2023-04-19T20:53:42.871Z,21.40
2023-04-19T20:55:44.726Z,20.59
2023-04-19T20:57:46.021Z,21.47
2023-04-19T20:59:49.166Z,21.46
2023-04-19T21:01:50.555Z,21.47
2023-04-19T21:03:55.174Z,21.50
2023-04-19T21:05:56.706Z,21.52
2023-04-19T21:07:58.004Z,21.55
2023-04-19T21:09:59.304Z,21.59
2023-04-19T21:12:02.260Z,21.60
2023-04-19T21:14:03.563Z,21.64
2023-04-19T21:16:04.881Z,21.70
2023-04-19T21:18:06.367Z,21.77
2023-04-19T21:20:12.149Z,21.84
2023-04-19T21:22:13.590Z,21.92
2023-04-19T21:24:15.033Z,21.98
2023-04-19T21:26:16.437Z,22.03
2023-04-19T21:28:17.863Z,22.07
2023-04-19T21:30:20.433Z,22.09
2023-04-19T21:32:22.867Z,22.09
2023-04-19T21:34:24.258Z,22.12
2023-04-19T21:36:26.297Z,22.12
2023-04-19T21:38:27.713Z,22.09
2023-04-19T21:40:29.022Z,22.05
2023-04-19T21:42:31.136Z,22.05
2023-04-19T21:44:32.462Z,22.01
2023-04-19T21:46:34.992Z,21.99
2023-04-19T21:48:36.415Z,21.97
2023-04-19T21:50:37.715Z,21.96
2023-04-19T21:52:39.062Z,21.94
2023-04-19T21:54:40.463Z,21.91
2023-04-19T21:56:41.780Z,21.92
2023-04-19T21:58:43.076Z,21.93
2023-04-19T22:00:45.547Z,21.92
2023-04-19T22:02:47.166Z,21.87
2023-04-19T22:04:48.717Z,21.86
2023-04-19T22:06:50.508Z,21.83
2023-04-19T22:08:51.815Z,21.80
2023-04-19T22:10:53.631Z,21.78
2023-04-19T22:12:58.869Z,21.75
2023-04-19T22:15:01.316Z,21.70
2023-04-19T22:17:03.202Z,21.67
2023-04-19T22:19:04.513Z,21.64
2023-04-19T22:21:06.416Z,21.62
2023-04-19T22:23:07.743Z,21.62
2023-04-19T22:25:09.086Z,21.60
2023-04-19T22:27:10.467Z,21.58
2023-04-19T22:29:11.755Z,21.55
2023-04-19T22:31:13.052Z,21.55
2023-04-19T22:33:14.381Z,21.55
2023-04-19T22:35:15.849Z,21.53
2023-04-19T22:37:17.167Z,21.53
2023-04-19T22:39:18.598Z,21.53
2023-04-19T22:41:20.012Z,20.84
2023-04-19T22:43:21.457Z,21.53
2023-04-19T22:45:22.751Z,21.52
2023-04-19T22:47:24.084Z,21.53
2023-04-19T22:49:25.464Z,21.54
2023-04-19T22:51:27.864Z,21.59
2023-04-19T22:53:29.196Z,21.70
2023-04-19T22:55:30.631Z,21.68
2023-04-19T22:57:31.929Z,21.69
2023-04-19T22:59:33.263Z,21.71
2023-04-19T23:01:34.690Z,21.72
2023-04-19T23:03:36.185Z,21.73
2023-04-19T23:05:37.496Z,21.75
2023-04-19T23:07:40.117Z,21.81
2023-04-19T23:09:41.554Z,21.82
2023-04-19T23:11:44.823Z,21.83
2023-04-19T23:13:47.479Z,21.85
2023-04-19T23:15:48.855Z,21.85
2023-04-19T23:17:50.533Z,21.83
2023-04-19T23:19:51.890Z,21.84
2023-04-19T23:21:53.234Z,21.85
2023-04-19T23:23:54.541Z,21.84
2023-04-19T23:25:55.899Z,21.83
2023-04-19T23:27:57.316Z,21.81
2023-04-19T23:29:58.656Z,21.79
2023-04-19T23:31:59.989Z,21.78
2023-04-19T23:34:02.160Z,21.77
2023-04-19T23:36:03.461Z,21.74
2023-04-19T23:38:04.799Z,21.74
2023-04-19T23:40:06.329Z,21.73
2023-04-19T23:42:07.633Z,21.72
2023-04-19T23:44:08.928Z,21.71
2023-04-19T23:46:10.349Z,21.69
2023-04-19T23:48:11.803Z,21.67
2023-04-19T23:50:13.130Z,21.66
2023-04-19T23:52:14.506Z,21.66
2023-04-19T23:54:16.786Z,21.68
2023-04-19T23:56:18.099Z,21.68
2023-04-19T23:58:19.441Z,21.65
